createdAt,value
2023-01-04T00:01:23.650Z,76.40
2023-01-04T00:03:51.281Z,82.50
2023-01-04T00:06:18.975Z,84.20
2023-01-04T00:08:46.376Z,81.90
2023-01-04T00:11:17.936Z,91.80
2023-01-04T00:13:46.371Z,93.70
2023-01-04T00:16:17.452Z,93.50
2023-01-04T00:18:45.491Z,90.10
2023-01-04T00:21:15.011Z,90.10
2023-01-04T00:23:44.370Z,88.50
2023-01-04T00:26:17.643Z,90.40
2023-01-04T00:28:51.756Z,90.50
2023-01-04T00:31:22.641Z,93.50
2023-01-04T00:33:51.203Z,95.70
2023-01-04T00:36:18.441Z,96.80
2023-01-04T00:38:45.779Z,96.50
2023-01-04T00:41:56.432Z,98.00
2023-01-04T00:44:03.380Z,99.20
2023-01-04T00:46:32.461Z,99.90
2023-01-04T00:49:00.696Z,99.90
2023-01-04T00:51:30.676Z,97.20
2023-01-04T00:54:00.122Z,94.50
2023-01-04T00:56:29.910Z,93.00
2023-01-04T00:58:58.609Z,91.50
2023-01-04T01:01:26.729Z,94.30
2023-01-04T01:03:55.646Z,97.00
2023-01-04T01:06:24.960Z,97.80
2023-01-04T01:08:53.180Z,98.90
2023-01-04T01:11:21.749Z,96.70
2023-01-04T01:13:50.230Z,96.10
2023-01-04T01:16:37.924Z,94.30
2023-01-04T01:19:07.559Z,92.30
2023-01-04T01:21:34.859Z,92.20
2023-01-04T01:24:02.088Z,92.80
2023-01-04T01:26:29.347Z,90.50
2023-01-04T01:28:56.592Z,72.00
2023-01-04T01:31:26.889Z,75.90
2023-01-04T01:33:56.317Z,69.70
2023-01-04T01:36:25.465Z,67.00
2023-01-04T01:38:53.654Z,67.60
2023-01-04T01:41:29.743Z,71.50
2023-01-04T01:44:04.652Z,72.60
2023-01-04T01:46:45.173Z,71.40
2023-01-04T01:49:30.262Z,74.60
2023-01-04T01:52:00.114Z,79.20
2023-01-04T01:54:31.343Z,91.90
2023-01-04T01:57:02.482Z,98.50
2023-01-04T01:59:31.665Z,99.90
2023-01-04T02:01:59.043Z,99.90
2023-01-04T02:04:26.415Z,99.90
2023-01-04T02:06:56.862Z,99.90
2023-01-04T02:09:24.350Z,99.90
2023-01-04T02:11:51.653Z,93.10
2023-01-04T02:14:30.058Z,86.50
2023-01-04T02:17:09.466Z,81.60
2023-01-04T02:19:57.616Z,85.80
2023-01-04T02:22:43.543Z,69.30
2023-01-04T02:25:32.701Z,75.70
2023-01-04T02:28:05.890Z,80.40
2023-01-04T02:30:45.051Z,84.40
2023-01-04T02:33:18.157Z,72.50
2023-01-04T02:36:04.161Z,57.50
2023-01-04T02:39:12.232Z,65.70
2023-01-04T02:41:52.430Z,74.20
2023-01-04T02:44:57.389Z,84.10
2023-01-04T02:47:54.178Z,91.40
2023-01-04T02:50:33.870Z,99.90
2023-01-04T02:53:15.815Z,97.60
2023-01-04T02:56:10.318Z,97.10
2023-01-04T02:59:12.515Z,94.70
2023-01-04T03:02:36.996Z,94.30
2023-01-04T03:05:35.014Z,91.40
2023-01-04T03:08:25.364Z,80.30
2023-01-04T03:10:56.255Z,75.20
2023-01-04T03:13:39.712Z,80.90
2023-01-04T03:16:15.452Z,82.60
2023-01-04T03:18:47.589Z,86.10
2023-01-04T03:21:16.928Z,84.70
2023-01-04T03:24:04.321Z,77.60
2023-01-04T03:26:54.736Z,73.90
2023-01-04T03:30:02.198Z,72.90
2023-01-04T03:33:22.745Z,71.10
2023-01-04T03:36:27.686Z,67.20
2023-01-04T03:39:36.182Z,64.60
2023-01-04T03:42:48.377Z,68.20
2023-01-04T03:45:41.030Z,74.40
2023-01-04T03:48:35.147Z,67.40
2023-01-04T03:51:34.791Z,62.60
2023-01-04T03:54:04.233Z,63.30
2023-01-04T03:56:33.032Z,59.30
2023-01-04T03:59:01.019Z,65.90
2023-01-04T04:01:29.075Z,64.60
2023-01-04T04:04:14.950Z,64.60
2023-01-04T04:07:00.926Z,60.10
2023-01-04T04:09:28.459Z,59.20
2023-01-04T04:11:55.713Z,59.20
2023-01-04T04:14:22.968Z,61.90
2023-01-04T04:16:50.232Z,63.50
2023-01-04T04:19:17.674Z,62.50
2023-01-04T04:21:45.192Z,60.50
2023-01-04T04:24:19.365Z,65.70
2023-01-04T04:26:46.586Z,63.90
2023-01-04T04:29:13.831Z,58.40
2023-01-04T04:31:41.203Z,58.80
2023-01-04T04:34:09.655Z,59.20
2023-01-04T04:36:37.643Z,59.10
2023-01-04T04:39:05.417Z,63.50
2023-01-04T04:41:38.777Z,65.10
2023-01-04T04:44:07.713Z,69.70
2023-01-04T04:46:35.131Z,67.50
2023-01-04T04:49:02.904Z,67.00
2023-01-04T04:51:30.699Z,70.50
2023-01-04T04:53:57.980Z,62.10
2023-01-04T04:56:25.474Z,64.10
2023-01-04T04:58:52.763Z,59.90
2023-01-04T05:01:20.164Z,58.00
2023-01-04T05:03:47.514Z,59.30
2023-01-04T05:06:15.220Z,60.90
2023-01-04T05:08:42.488Z,60.80
2023-01-04T05:11:12.273Z,59.60
2023-01-04T05:13:39.682Z,58.80
2023-01-04T05:16:09.024Z,87.70
2023-01-04T05:18:36.598Z,62.70
2023-01-04T05:21:04.115Z,60.50
2023-01-04T05:23:31.437Z,57.30
2023-01-04T05:26:03.713Z,57.60
2023-01-04T05:28:31.640Z,56.20
2023-01-04T05:30:59.062Z,54.70
2023-01-04T05:33:31.251Z,55.80
2023-01-04T05:36:01.930Z,63.10
2023-01-04T05:38:29.820Z,69.10
2023-01-04T05:40:57.299Z,69.00
2023-01-04T05:43:25.154Z,77.70
2023-01-04T05:45:57.050Z,89.40
2023-01-04T05:48:25.545Z,91.90
2023-01-04T05:50:53.832Z,95.50
2023-01-04T05:53:21.150Z,94.20
2023-01-04T05:55:49.157Z,91.10
2023-01-04T05:58:16.684Z,89.30
2023-01-04T06:00:43.935Z,84.00
2023-01-04T06:03:11.457Z,77.10
2023-01-04T06:05:39.019Z,77.10
2023-01-04T06:08:06.532Z,77.40
2023-01-04T06:10:33.799Z,75.10
2023-01-04T06:13:01.084Z,75.60
2023-01-04T06:15:28.328Z,76.00
2023-01-04T06:17:55.633Z,71.70
2023-01-04T06:20:23.002Z,77.60
2023-01-04T06:22:50.192Z,79.40
2023-01-04T06:25:17.686Z,82.00
2023-01-04T06:27:45.114Z,79.50
2023-01-04T06:30:12.442Z,78.80
2023-01-04T06:32:39.710Z,83.80
2023-01-04T06:35:07.223Z,87.60
2023-01-04T06:37:35.724Z,64.40
2023-01-04T06:40:03.507Z,59.60
2023-01-04T06:42:45.764Z,62.40
2023-01-04T06:45:17.083Z,65.90
2023-01-04T06:47:44.774Z,68.30
2023-01-04T06:50:12.129Z,73.80
2023-01-04T06:52:39.525Z,75.10
2023-01-04T06:55:09.850Z,74.20
2023-01-04T06:57:37.408Z,76.40
2023-01-04T07:00:06.935Z,78.40
2023-01-04T07:02:34.357Z,79.00
2023-01-04T07:05:02.363Z,80.40
2023-01-04T07:07:29.730Z,79.00
2023-01-04T07:09:56.918Z,79.30
2023-01-04T07:12:24.159Z,78.60
2023-01-04T07:14:51.507Z,74.60
2023-01-04T07:17:19.388Z,72.50
2023-01-04T07:19:48.562Z,72.40
2023-01-04T07:22:16.335Z,70.00
2023-01-04T07:24:43.903Z,67.10
2023-01-04T07:27:11.726Z,67.30
2023-01-04T07:29:43.885Z,68.10
2023-01-04T07:32:13.955Z,67.60
2023-01-04T07:34:41.697Z,67.20
2023-01-04T07:37:13.172Z,64.80
2023-01-04T07:39:40.411Z,65.00
2023-01-04T07:42:07.849Z,63.90
2023-01-04T07:44:35.122Z,63.70
2023-01-04T07:47:02.833Z,62.50
2023-01-04T07:49:30.237Z,67.70
2023-01-04T07:51:57.491Z,72.40
2023-01-04T07:54:24.834Z,75.20
2023-01-04T07:56:52.557Z,80.70
2023-01-04T07:59:21.668Z,88.20
2023-01-04T08:01:51.056Z,87.20
2023-01-04T08:04:22.317Z,95.30
2023-01-04T08:06:49.772Z,93.40
2023-01-04T08:09:17.985Z,95.00
2023-01-04T08:11:46.066Z,94.30
2023-01-04T08:14:13.588Z,96.80
2023-01-04T08:16:42.616Z,95.90
2023-01-04T08:19:16.769Z,95.50
2023-01-04T08:21:45.121Z,95.00
2023-01-04T08:24:14.678Z,95.20
2023-01-04T08:26:42.263Z,94.20
2023-01-04T08:29:09.895Z,93.60
2023-01-04T08:31:37.813Z,91.50
2023-01-04T08:34:07.457Z,90.50
2023-01-04T08:36:36.392Z,90.00
2023-01-04T08:39:06.257Z,89.40
2023-01-04T08:42:02.236Z,85.10
2023-01-04T08:44:35.229Z,76.90
2023-01-04T08:47:02.731Z,65.40
2023-01-04T08:49:30.064Z,62.40
2023-01-04T08:51:57.443Z,54.50
2023-01-04T08:54:24.762Z,55.00
2023-01-04T08:56:52.149Z,48.80
2023-01-04T08:59:19.382Z,50.10
2023-01-04T09:01:47.083Z,51.80
2023-01-04T09:04:14.445Z,44.70
2023-01-04T09:06:42.675Z,45.60
2023-01-04T09:09:09.935Z,44.90
2023-01-04T09:11:38.558Z,41.30
2023-01-04T09:14:09.367Z,41.60
2023-01-04T09:16:40.519Z,40.60
2023-01-04T09:19:08.236Z,38.80
2023-01-04T09:21:36.053Z,38.00
2023-01-04T09:24:03.487Z,36.70
2023-01-04T09:26:30.797Z,36.80
2023-01-04T09:28:58.351Z,36.50
2023-01-04T09:31:27.758Z,36.60
2023-01-04T09:36:45.026Z,35.90
2023-01-04T09:39:21.109Z,35.50
2023-01-04T09:42:03.223Z,35.40
2023-01-04T09:47:29.765Z,33.40
2023-01-04T09:50:00.327Z,34.60
2023-01-04T09:52:59.362Z,33.20
2023-01-04T09:55:40.873Z,33.60
2023-01-04T09:58:41.999Z,33.40
2023-01-04T10:01:15.725Z,32.10
2023-01-04T10:04:04.931Z,32.80
2023-01-04T10:06:34.909Z,32.20
2023-01-04T10:09:06.924Z,31.80
2023-01-04T10:12:23.841Z,32.50
2023-01-04T10:15:12.769Z,31.40
2023-01-04T10:21:26.349Z,30.80
2023-01-04T10:24:11.030Z,31.60
2023-01-04T10:26:48.260Z,31.80
2023-01-04T10:29:38.905Z,48.00
2023-01-04T10:32:12.102Z,29.90
2023-01-04T10:34:45.706Z,30.00
2023-01-04T10:37:20.984Z,29.80
2023-01-04T10:39:55.217Z,29.30
2023-01-04T10:42:34.429Z,29.10
2023-01-04T10:45:22.563Z,29.20
2023-01-04T10:48:05.427Z,28.80
2023-01-04T10:50:48.221Z,28.60
2023-01-04T10:53:30.498Z,45.60
2023-01-04T10:56:25.088Z,28.20
2023-01-04T10:59:07.422Z,27.80
2023-01-04T11:01:42.405Z,27.80
2023-01-04T11:04:21.382Z,45.40
2023-01-04T11:07:05.373Z,27.80
2023-01-04T11:09:52.807Z,26.90
2023-01-04T11:12:23.397Z,26.40
2023-01-04T11:14:52.626Z,26.50
2023-01-04T11:17:21.663Z,25.60
2023-01-04T11:19:49.358Z,26.00
2023-01-04T11:23:04.162Z,26.80
2023-01-04T11:25:37.779Z,26.00
2023-01-04T11:28:28.860Z,26.30
2023-01-04T11:31:08.117Z,25.30
2023-01-04T11:34:01.398Z,25.60
2023-01-04T11:36:31.704Z,26.50
2023-01-04T11:38:59.535Z,25.10
2023-01-04T11:41:27.653Z,25.20
2023-01-04T11:44:01.592Z,25.40
2023-01-04T11:46:30.775Z,25.90
2023-01-04T11:48:58.491Z,25.60
2023-01-04T11:51:29.030Z,25.00
2023-01-04T11:54:14.566Z,24.70
2023-01-04T11:57:12.036Z,41.70
2023-01-04T11:59:39.816Z,24.60
2023-01-04T12:02:50.534Z,24.10
2023-01-04T12:08:28.032Z,23.30
2023-01-04T12:10:56.088Z,22.60
2023-01-04T12:13:23.573Z,22.30
2023-01-04T12:16:06.020Z,23.10
2023-01-04T12:18:39.471Z,23.10
2023-01-04T12:21:06.878Z,23.90
2023-01-04T12:23:34.647Z,22.40
2023-01-04T12:26:02.780Z,22.70
2023-01-04T12:28:41.744Z,22.90
2023-01-04T12:31:21.906Z,22.60
2023-01-04T12:34:19.982Z,21.90
2023-01-04T12:36:57.412Z,22.20
2023-01-04T12:39:47.686Z,21.70
2023-01-04T12:42:24.508Z,22.50
2023-01-04T12:44:52.348Z,21.40
2023-01-04T12:47:38.348Z,21.00
2023-01-04T12:50:20.665Z,20.50
2023-01-04T12:55:52.138Z,20.10
2023-01-04T12:58:49.640Z,20.40
2023-01-04T13:01:27.819Z,20.70
2023-01-04T13:04:23.319Z,19.40
2023-01-04T13:06:50.952Z,18.90
2023-01-04T13:09:25.664Z,18.50
2023-01-04T13:12:08.463Z,18.10
2023-01-04T13:14:46.989Z,17.80
2023-01-04T13:17:23.619Z,18.60
2023-01-04T13:19:51.168Z,18.90
2023-01-04T13:22:29.210Z,18.70
2023-01-04T13:24:59.441Z,18.40
2023-01-04T13:27:27.819Z,19.00
2023-01-04T13:29:55.652Z,18.60
2023-01-04T13:32:24.467Z,17.90
2023-01-04T13:35:14.107Z,17.60
2023-01-04T13:37:45.558Z,17.00
2023-01-04T13:40:12.746Z,17.60
2023-01-04T13:42:43.274Z,17.10
2023-01-04T13:45:25.749Z,16.90
2023-01-04T13:47:57.680Z,16.50
2023-01-04T13:50:44.243Z,15.10
2023-01-04T13:53:23.184Z,15.40
2023-01-04T13:55:59.291Z,14.30
2023-01-04T13:58:31.227Z,14.70
2023-01-04T14:01:20.239Z,15.70
2023-01-04T14:04:13.535Z,14.00
2023-01-04T14:06:42.226Z,14.60
2023-01-04T14:09:09.814Z,14.00
2023-01-04T14:14:48.304Z,13.30
2023-01-04T14:17:44.520Z,14.10
2023-01-04T14:20:24.095Z,13.70
2023-01-04T14:22:53.952Z,13.80
2023-01-04T14:25:45.975Z,13.30
2023-01-04T14:28:19.852Z,12.60
2023-01-04T14:30:50.684Z,12.30
2023-01-04T14:33:17.887Z,12.30
2023-01-04T14:35:48.857Z,11.90
2023-01-04T14:38:19.627Z,11.50
2023-01-04T14:40:47.114Z,11.40
2023-01-04T14:43:37.287Z,11.50
2023-01-04T14:46:04.591Z,11.10
2023-01-04T14:48:31.897Z,12.20
2023-01-04T14:51:00.551Z,12.80
2023-01-04T14:53:28.032Z,13.80
2023-01-04T14:55:55.359Z,13.40
2023-01-04T14:58:22.998Z,13.00
2023-01-04T15:00:50.372Z,13.30
2023-01-04T15:03:17.886Z,12.90
2023-01-04T15:05:46.802Z,13.50
2023-01-04T15:08:14.069Z,13.40
2023-01-04T15:10:41.295Z,13.90
2023-01-04T15:13:08.602Z,15.30
2023-01-04T15:15:36.012Z,15.00
2023-01-04T15:18:03.523Z,13.70
2023-01-04T15:20:30.915Z,13.90
2023-01-04T15:22:58.178Z,15.10
2023-01-04T15:25:27.212Z,14.40
2023-01-04T15:27:54.487Z,16.00
2023-01-04T15:30:21.986Z,15.00
2023-01-04T15:32:49.354Z,14.70
2023-01-04T15:35:17.239Z,14.50
2023-01-04T15:37:44.801Z,15.10
2023-01-04T15:40:14.795Z,14.90
2023-01-04T15:43:00.744Z,13.70
2023-01-04T15:45:34.584Z,13.50
2023-01-04T15:48:03.919Z,13.70
2023-01-04T15:50:34.764Z,13.90
2023-01-04T15:53:02.211Z,14.10
2023-01-04T15:55:36.143Z,13.30
2023-01-04T15:58:05.160Z,11.80
2023-01-04T16:00:32.988Z,12.40
2023-01-04T16:03:00.378Z,12.80
2023-01-04T16:05:27.848Z,13.50
2023-01-04T16:07:55.144Z,13.20
2023-01-04T16:10:22.925Z,12.70
2023-01-04T16:12:56.698Z,12.00
2023-01-04T16:15:24.329Z,13.30
2023-01-04T16:17:51.562Z,13.20
2023-01-04T16:20:19.379Z,11.90
2023-01-04T16:22:46.653Z,11.90
2023-01-04T16:25:14.224Z,12.20
2023-01-04T16:27:42.089Z,13.60
2023-01-04T16:30:13.612Z,13.20
2023-01-04T16:32:44.388Z,12.90
2023-01-04T16:35:12.476Z,12.30
2023-01-04T16:37:39.855Z,13.60
2023-01-04T16:40:09.000Z,15.70
2023-01-04T16:42:37.964Z,14.60
2023-01-04T16:45:05.951Z,14.50
2023-01-04T16:47:40.511Z,13.60
2023-01-04T16:50:09.833Z,13.30
2023-01-04T16:52:38.251Z,15.10
2023-01-04T16:55:06.807Z,14.30
2023-01-04T16:57:35.248Z,13.70
2023-01-04T17:00:02.917Z,13.50
2023-01-04T17:02:30.464Z,13.20
2023-01-04T17:04:59.768Z,14.10
2023-01-04T17:07:32.517Z,12.90
2023-01-04T17:10:01.001Z,12.70
2023-01-04T17:18:05.025Z,13.80
2023-01-04T17:20:32.281Z,14.10
2023-01-04T17:23:00.165Z,14.40
2023-01-04T17:25:27.468Z,14.00
2023-01-04T17:27:54.693Z,15.50
2023-01-04T17:30:21.934Z,16.00
2023-01-04T17:32:49.127Z,14.70
2023-01-04T17:35:16.374Z,15.80
2023-01-04T17:37:43.592Z,15.90
2023-01-04T17:40:11.733Z,15.90
2023-01-04T17:42:41.170Z,17.30
2023-01-04T17:45:08.897Z,18.00
2023-01-04T17:47:36.183Z,19.30
2023-01-04T17:50:03.891Z,18.60
2023-01-04T17:52:31.748Z,19.60
2023-01-04T17:54:59.589Z,18.00
2023-01-04T17:57:29.699Z,18.10
2023-01-04T17:59:57.107Z,17.90
2023-01-04T18:02:24.544Z,20.50
2023-01-04T18:04:52.919Z,19.10
2023-01-04T18:07:25.036Z,19.60
2023-01-04T18:09:52.891Z,19.50
2023-01-04T18:12:21.461Z,17.50
2023-01-04T18:14:49.243Z,18.80
2023-01-04T18:17:16.640Z,18.60
2023-01-04T18:19:46.481Z,18.00
2023-01-04T18:22:13.919Z,17.80
2023-01-04T18:24:41.251Z,18.30
2023-01-04T18:27:27.494Z,18.50
2023-01-04T18:29:56.272Z,18.70
2023-01-04T18:32:25.682Z,19.20
2023-01-04T18:34:53.148Z,19.20
2023-01-04T18:37:20.633Z,20.00
2023-01-04T18:39:48.794Z,20.00
2023-01-04T18:42:16.377Z,20.90
2023-01-04T18:44:51.083Z,20.90
2023-01-04T18:47:20.274Z,21.20
2023-01-04T18:49:51.930Z,20.30
2023-01-04T18:52:20.094Z,20.70
2023-01-04T18:54:48.814Z,20.50
2023-01-04T18:57:16.521Z,21.20
2023-01-04T18:59:43.825Z,20.40
2023-01-04T19:02:19.602Z,21.80
2023-01-04T19:04:47.400Z,22.30
2023-01-04T19:07:14.732Z,23.00
2023-01-04T19:09:42.843Z,21.30
2023-01-04T19:12:10.820Z,23.10
2023-01-04T19:14:38.427Z,22.50
2023-01-04T19:17:05.672Z,22.70
2023-01-04T19:19:34.208Z,21.00
2023-01-04T19:22:01.669Z,21.30
2023-01-04T19:24:29.475Z,22.70
2023-01-04T19:27:02.837Z,20.70
2023-01-04T19:29:31.298Z,18.50
2023-01-04T19:31:58.773Z,19.50
2023-01-04T19:34:26.680Z,19.50
2023-01-04T19:36:54.226Z,19.80
2023-01-04T19:39:21.875Z,20.50
2023-01-04T19:41:49.310Z,21.90
2023-01-04T19:44:17.659Z,22.70
2023-01-04T19:46:45.127Z,24.20
2023-01-04T19:49:15.553Z,24.00
2023-01-04T19:51:45.527Z,25.40
2023-01-04T19:54:14.423Z,26.60
2023-01-04T19:56:42.950Z,28.80
2023-01-04T19:59:10.780Z,26.70
2023-01-04T20:01:38.559Z,27.40
2023-01-04T20:04:06.138Z,27.90
2023-01-04T20:06:34.011Z,28.30
2023-01-04T20:09:01.687Z,27.70
2023-01-04T20:11:29.036Z,29.60
2023-01-04T20:13:56.558Z,29.70
2023-01-04T20:16:24.046Z,27.80
2023-01-04T20:18:58.052Z,24.80
2023-01-04T20:21:25.596Z,22.00
2023-01-04T20:23:53.199Z,25.20
2023-01-04T20:26:20.706Z,26.90
2023-01-04T20:28:48.866Z,29.10
2023-01-04T20:31:18.478Z,29.90
2023-01-04T20:33:47.864Z,26.70
2023-01-04T20:36:21.043Z,47.80
2023-01-04T20:38:48.991Z,45.40
2023-01-04T20:41:20.154Z,27.10
2023-01-04T20:43:48.778Z,24.80
2023-01-04T20:46:21.348Z,22.50
2023-01-04T20:48:49.957Z,25.20
2023-01-04T20:51:20.450Z,27.00
2023-01-04T20:53:47.883Z,25.80
2023-01-04T20:56:20.708Z,29.60
2023-01-04T20:58:49.266Z,34.30
2023-01-04T21:01:17.886Z,33.80
2023-01-04T21:03:45.451Z,35.80
2023-01-04T21:06:15.958Z,33.30
2023-01-04T21:08:46.820Z,33.50
2023-01-04T21:11:14.493Z,30.40
2023-01-04T21:13:42.727Z,34.30
2023-01-04T21:16:11.363Z,32.50
2023-01-04T21:18:38.878Z,37.40
2023-01-04T21:21:08.603Z,34.90
2023-01-04T21:23:38.273Z,30.30
2023-01-04T21:26:12.362Z,31.50
2023-01-04T21:28:39.993Z,31.70
2023-01-04T21:31:24.140Z,27.60
2023-01-04T21:33:54.949Z,26.10
2023-01-04T21:36:25.117Z,26.80
2023-01-04T21:38:54.577Z,31.80
2023-01-04T21:41:26.493Z,29.70
2023-01-04T21:43:56.565Z,29.80
2023-01-04T21:46:25.754Z,29.60
2023-01-04T21:48:58.368Z,30.80
2023-01-04T21:51:26.877Z,26.00
2023-01-04T21:53:54.951Z,22.70
2023-01-04T21:56:24.167Z,22.20
2023-01-04T21:58:51.829Z,22.20
2023-01-04T22:01:21.703Z,22.40
2023-01-04T22:03:49.896Z,25.10
2023-01-04T22:06:17.857Z,25.60
2023-01-04T22:08:46.545Z,26.30
2023-01-04T22:11:15.397Z,25.60
2023-01-04T22:13:42.954Z,25.20
2023-01-04T22:16:13.852Z,27.50
2023-01-04T22:18:41.526Z,29.10
2023-01-04T22:21:12.513Z,30.30
2023-01-04T22:23:39.964Z,30.70
2023-01-04T22:26:07.955Z,29.50
2023-01-04T22:28:37.216Z,30.60
2023-01-04T22:31:06.923Z,30.70
2023-01-04T22:33:39.067Z,34.30
2023-01-04T22:36:07.996Z,30.00
2023-01-04T22:38:36.910Z,30.00
2023-01-04T22:41:19.269Z,27.60
2023-01-04T22:43:47.271Z,27.60
2023-01-04T22:46:20.008Z,34.00
2023-01-04T22:48:47.481Z,27.90
2023-01-04T22:51:17.064Z,27.50
2023-01-04T22:53:44.903Z,27.60
2023-01-04T22:56:20.327Z,26.90
2023-01-04T22:58:53.120Z,27.60
2023-01-04T23:01:23.071Z,27.50
2023-01-04T23:03:52.081Z,28.10
2023-01-04T23:06:20.517Z,27.50
2023-01-04T23:08:48.765Z,28.40
2023-01-04T23:11:17.947Z,29.10
2023-01-04T23:13:45.835Z,29.20
2023-01-04T23:16:16.317Z,26.20
2023-01-04T23:18:44.232Z,27.80
2023-01-04T23:21:12.494Z,26.20
2023-01-04T23:23:40.061Z,27.50
2023-01-04T23:26:10.871Z,26.70
2023-01-04T23:28:38.159Z,26.10
2023-01-04T23:31:07.714Z,25.20
2023-01-04T23:33:36.760Z,24.60
2023-01-04T23:36:15.930Z,26.40
2023-01-04T23:38:44.853Z,30.30
2023-01-04T23:41:12.189Z,29.60
2023-01-04T23:43:39.693Z,31.20
2023-01-04T23:46:18.262Z,27.80
2023-01-04T23:48:45.730Z,27.10
2023-01-04T23:51:15.121Z,27.40
2023-01-04T23:53:42.393Z,20.40
2023-01-04T23:56:15.550Z,21.40
2023-01-04T23:58:42.987Z,21.30
